Time;durP1;ratioP1;P1;durP2;ratioP2;P2;SDS_P1;SDS_P2;PMS_P1;PMS_P2;Temp;Humidity;BMP_temperature;BMP_pressure;BME280_temperature;BME280_humidity;BME280_pressure;Samples;Min_cycle;Max_cycle;Signal;HPM_P1;HPM_P2
2023/03/04 04:01:51;;;;;;;11.70;10.30;;;3.60;74.30;;;;;;5380233;23;20507;-70
2023/03/04 04:04:18;;;;;;;11.23;10.13;;;3.60;74.50;;;;;;4957577;29;20455;-70
2023/03/04 04:06:44;;;;;;;10.87;9.53;;;3.60;74.30;;;;;;4957297;29;20948;-70
2023/03/04 04:09:11;;;;;;;10.80;9.73;;;3.60;74.50;;;;;;4957259;29;20455;-70
2023/03/04 04:11:38;;;;;;;10.17;9.20;;;3.60;74.80;;;;;;4957256;29;20502;-69
2023/03/04 04:14:04;;;;;;;10.73;9.63;;;3.60;74.60;;;;;;4957447;29;20526;-70
2023/03/04 04:16:31;;;;;;;10.73;9.73;;;3.70;74.50;;;;;;4979630;23;21006;-73
2023/03/04 04:18:59;;;;;;;10.33;9.27;;;3.70;74.40;;;;;;4957360;29;20803;-72
2023/03/04 04:21:26;;;;;;;10.40;9.30;;;3.60;74.70;;;;;;4957445;29;20450;-73
2023/03/04 04:23:53;;;;;;;10.87;9.67;;;3.70;74.60;;;;;;4957171;29;20490;-72
2023/03/04 04:26:19;;;;;;;10.77;9.67;;;3.60;74.70;;;;;;4957151;29;20471;-73
2023/03/04 04:28:46;;;;;;;9.67;8.43;;;3.70;74.90;;;;;;4957171;29;20450;-72
2023/03/04 04:31:13;;;;;;;10.93;9.83;;;3.70;74.80;;;;;;4957055;29;20449;-73
2023/03/04 04:33:39;;;;;;;9.40;8.40;;;3.60;74.70;;;;;;4956933;29;20491;-72
2023/03/04 04:36:13;;;;;;;10.70;8.90;;;3.70;74.80;;;;;;4956995;29;20475;-73
2023/03/04 04:38:39;;;;;;;10.17;9.27;;;3.70;74.70;;;;;;4956975;29;20494;-72
2023/03/04 04:41:09;;;;;;;11.50;9.67;;;3.70;74.50;;;;;;4956611;29;20443;-73
2023/03/04 04:43:35;;;;;;;10.90;9.90;;;3.70;74.50;;;;;;4956876;29;20455;-72
2023/03/04 04:46:02;;;;;;;9.80;8.53;;;3.80;74.50;;;;;;4956787;29;20843;-73
2023/03/04 04:48:29;;;;;;;11.87;10.20;;;3.70;74.40;;;;;;4956750;29;20940;-73
2023/03/04 04:50:56;;;;;;;10.80;9.23;;;3.60;74.70;;;;;;4956393;29;20957;-73
2023/03/04 04:53:24;;;;;;;11.80;10.40;;;3.50;75.10;;;;;;4956627;29;20512;-73
2023/03/04 04:55:51;;;;;;;10.33;9.20;;;3.50;74.70;;;;;;4956544;29;20480;-73
2023/03/04 04:58:17;;;;;;;10.17;9.17;;;3.50;74.80;;;;;;4956609;29;20462;-72
2023/03/04 05:00:44;;;;;;;11.93;9.13;;;3.50;74.50;;;;;;4956459;29;20451;-72
2023/03/04 05:03:11;;;;;;;9.40;8.40;;;3.50;74.70;;;;;;4956540;29;20503;-73
2023/03/04 05:05:37;;;;;;;10.33;9.33;;;3.60;74.60;;;;;;4956026;29;20987;-70
2023/03/04 05:08:04;;;;;;;10.93;9.80;;;3.60;74.50;;;;;;4956418;29;20451;-72
2023/03/04 05:10:32;;;;;;;11.77;10.47;;;3.60;74.50;;;;;;4956338;29;20458;-72
2023/03/04 05:12:59;;;;;;;10.67;8.93;;;3.60;74.50;;;;;;4956194;29;20483;-72
2023/03/04 05:15:26;;;;;;;10.13;9.10;;;3.50;74.50;;;;;;4955984;29;20479;-73
2023/03/04 05:17:52;;;;;;;10.03;9.00;;;3.50;74.30;;;;;;4955885;29;20956;-73
2023/03/04 05:20:19;;;;;;;10.90;9.33;;;3.40;74.50;;;;;;4955904;29;20506;-73
2023/03/04 05:22:46;;;;;;;9.97;8.97;;;3.40;74.40;;;;;;4955872;29;20831;-72
2023/03/04 05:25:13;;;;;;;10.37;8.80;;;3.40;74.70;;;;;;4955825;29;20976;-73
2023/03/04 05:27:40;;;;;;;9.53;8.57;;;3.50;74.60;;;;;;4955633;28;20957;-72
2023/03/04 05:30:09;;;;;;;10.23;9.17;;;3.40;74.70;;;;;;4956109;29;20498;-73
2023/03/04 05:32:35;;;;;;;10.70;9.17;;;3.30;74.70;;;;;;4955967;29;20491;-72
2023/03/04 05:35:02;;;;;;;9.50;8.50;;;3.30;74.60;;;;;;4955685;29;20988;-72
2023/03/04 05:37:29;;;;;;;10.87;9.20;;;3.30;74.60;;;;;;4956136;29;20842;-73
2023/03/04 05:39:55;;;;;;;9.03;8.10;;;3.30;74.70;;;;;;4956580;29;20509;-72
2023/03/04 05:42:22;;;;;;;9.03;8.13;;;3.20;74.70;;;;;;4956102;29;20510;-72
2023/03/04 05:44:50;;;;;;;10.77;9.67;;;3.10;75.20;;;;;;4955947;29;20450;-72
2023/03/04 05:47:17;;;;;;;11.83;9.43;;;3.10;75.50;;;;;;4955865;29;20456;-73
2023/03/04 05:49:44;;;;;;;9.80;8.60;;;3.10;75.60;;;;;;4955628;29;20991;-73
2023/03/04 05:52:10;;;;;;;10.33;8.80;;;3.10;75.70;;;;;;4955695;29;20538;-72
2023/03/04 05:54:37;;;;;;;10.17;9.13;;;3.10;75.70;;;;;;4955751;29;20466;-71
2023/03/04 05:57:04;;;;;;;8.67;7.77;;;3.20;75.60;;;;;;4955857;29;20459;-73
2023/03/04 05:59:30;;;;;;;10.93;9.83;;;3.20;75.80;;;;;;4955769;29;20451;-73
2023/03/04 06:01:58;;;;;;;11.83;10.10;;;3.20;75.90;;;;;;4955851;29;20455;-73
2023/03/04 06:04:25;;;;;;;10.37;9.33;;;3.20;75.70;;;;;;4955718;29;20448;-73
2023/03/04 06:06:52;;;;;;;13.70;11.83;;;3.20;75.70;;;;;;4955813;29;20479;-73
2023/03/04 06:09:19;;;;;;;11.63;10.30;;;3.20;75.90;;;;;;4955582;29;20451;-73
2023/03/04 06:11:46;;;;;;;11.50;8.93;;;3.20;76.00;;;;;;4955637;29;20553;-73
2023/03/04 06:14:13;;;;;;;11.20;8.97;;;3.30;75.70;;;;;;4955519;29;20521;-73
2023/03/04 06:16:39;;;;;;;9.33;8.33;;;3.30;75.50;;;;;;4955536;29;20538;-72
2023/03/04 06:19:07;;;;;;;12.37;10.00;;;3.20;75.60;;;;;;4955497;29;20447;-73
2023/03/04 06:21:34;;;;;;;11.73;10.23;;;3.30;75.60;;;;;;4955623;29;20571;-73
2023/03/04 06:24:01;;;;;;;11.07;9.90;;;3.30;75.40;;;;;;4955490;29;20451;-71
2023/03/04 06:26:27;;;;;;;11.23;9.00;;;3.30;75.30;;;;;;4955069;29;20499;-73
2023/03/04 06:28:55;;;;;;;10.77;9.67;;;3.40;75.30;;;;;;4955428;29;20459;-72
2023/03/04 06:31:22;;;;;;;10.73;9.73;;;3.50;75.10;;;;;;4955237;29;20450;-73
2023/03/04 06:33:49;;;;;;;12.87;9.93;;;3.70;75.10;;;;;;4955512;29;20516;-72
2023/03/04 06:36:17;;;;;;;12.53;10.50;;;3.90;74.60;;;;;;4955338;29;20466;-73
2023/03/04 06:38:43;;;;;;;10.80;9.60;;;4.20;73.80;;;;;;4955568;29;20454;-72
2023/03/04 06:41:11;;;;;;;10.93;9.77;;;4.50;72.90;;;;;;4958546;28;20447;-73
2023/03/04 06:43:39;;;;;;;11.03;9.27;;;5.00;72.20;;;;;;4959447;29;20447;-73
2023/03/04 06:46:06;;;;;;;10.40;9.23;;;5.50;70.80;;;;;;4958833;29;21051;-73
2023/03/04 06:48:33;;;;;;;10.23;9.13;;;6.30;68.70;;;;;;4959099;29;20463;-73
2023/03/04 06:51:05;;;;;;;10.57;9.50;;;6.80;66.30;;;;;;4958820;29;20451;-73
2023/03/04 06:53:33;;;;;;;9.50;8.50;;;7.30;64.70;;;;;;4959137;29;20467;-73
2023/03/04 06:56:00;;;;;;;10.90;9.70;;;7.80;63.50;;;;;;4959452;29;20478;-73
2023/03/04 06:58:27;;;;;;;10.17;8.60;;;8.20;62.40;;;;;;4958938;29;20454;-73
2023/03/04 07:00:53;;;;;;;9.53;8.63;;;8.50;60.80;;;;;;4958980;29;20455;-73
2023/03/04 07:03:20;;;;;;;9.17;8.30;;;8.20;61.00;;;;;;4958873;29;20447;-73
2023/03/04 07:05:47;;;;;;;11.07;9.63;;;7.80;61.60;;;;;;4958649;29;20486;-73
2023/03/04 07:08:14;;;;;;;11.53;9.83;;;7.30;62.80;;;;;;4958517;29;20961;-73
2023/03/04 07:10:42;;;;;;;11.17;10.00;;;6.70;64.60;;;;;;4958486;29;20451;-73
2023/03/04 07:13:09;;;;;;;9.90;8.60;;;6.20;66.30;;;;;;4958304;29;21062;-73
2023/03/04 07:15:36;;;;;;;10.13;9.07;;;5.80;67.80;;;;;;4958283;29;20557;-73
2023/03/04 07:18:03;;;;;;;10.27;8.60;;;5.50;69.10;;;;;;4958521;29;20458;-73
2023/03/04 07:20:29;;;;;;;11.47;10.37;;;5.10;70.50;;;;;;4958617;29;20458;-73
2023/03/04 07:22:56;;;;;;;10.33;9.33;;;4.70;71.80;;;;;;4958519;29;20822;-72
2023/03/04 07:25:22;;;;;;;12.00;10.37;;;4.60;72.30;;;;;;4958170;29;21051;-73
2023/03/04 07:27:50;;;;;;;10.63;9.50;;;4.50;72.80;;;;;;4958066;29;20948;-72
2023/03/04 07:30:17;;;;;;;10.90;9.80;;;4.20;73.60;;;;;;4957988;29;20459;-72
2023/03/04 07:32:44;;;;;;;11.63;10.43;;;4.10;74.40;;;;;;4958337;29;20455;-72
2023/03/04 07:35:11;;;;;;;11.30;10.20;;;4.00;75.00;;;;;;4958415;29;20459;-73
2023/03/04 07:37:40;;;;;;;10.53;9.43;;;3.80;75.50;;;;;;4958979;29;20502;-71
2023/03/04 07:40:08;;;;;;;10.13;9.10;;;3.80;76.00;;;;;;4969119;29;20863;-74
2023/03/04 07:42:36;;;;;;;12.10;8.73;;;3.70;76.50;;;;;;4968946;29;20792;-74
2023/03/04 07:45:05;;;;;;;11.50;9.50;;;3.60;76.80;;;;;;4969047;29;20471;-75
2023/03/04 07:47:31;;;;;;;11.00;9.87;;;3.40;77.40;;;;;;4966591;29;20861;-74
2023/03/04 07:49:58;;;;;;;10.80;9.00;;;3.30;77.60;;;;;;4966599;29;20457;-74
2023/03/04 07:52:25;;;;;;;10.20;9.20;;;3.40;77.80;;;;;;4964982;28;20443;-73
2023/03/04 07:54:52;;;;;;;12.40;9.67;;;3.40;77.80;;;;;;4966945;29;20863;-74
2023/03/04 07:57:18;;;;;;;11.13;10.00;;;3.40;77.80;;;;;;4959522;29;20451;-74
2023/03/04 07:59:45;;;;;;;11.00;9.83;;;3.50;77.70;;;;;;4958536;29;20455;-73
2023/03/04 08:02:14;;;;;;;10.40;9.17;;;3.60;77.60;;;;;;4957579;29;20948;-73
2023/03/04 08:04:41;;;;;;;11.20;10.20;;;3.50;77.70;;;;;;4957517;29;20452;-73
2023/03/04 08:07:07;;;;;;;9.40;8.40;;;3.50;78.00;;;;;;4957996;29;20451;-74
2023/03/04 08:09:34;;;;;;;10.90;9.80;;;3.50;77.70;;;;;;4957745;29;20455;-74
2023/03/04 08:12:01;;;;;;;9.87;8.90;;;3.60;77.70;;;;;;4957651;29;20451;-74
2023/03/04 08:14:27;;;;;;;9.70;8.70;;;3.60;77.90;;;;;;4957448;29;20574;-74
2023/03/04 08:16:54;;;;;;;8.97;8.07;;;3.50;77.80;;;;;;4957379;29;20490;-74
2023/03/04 08:19:22;;;;;;;10.87;8.73;;;3.50;78.30;;;;;;4957380;29;20447;-74
2023/03/04 08:21:49;;;;;;;11.70;9.97;;;3.50;78.30;;;;;;4957490;29;20451;-72
2023/03/04 08:24:15;;;;;;;12.20;8.80;;;3.70;78.10;;;;;;4957655;29;20444;-74
2023/03/04 08:26:45;;;;;;;9.80;8.47;;;3.80;78.40;;;;;;4956962;29;20992;-75
2023/03/04 08:29:14;;;;;;;14.33;9.80;;;3.90;77.80;;;;;;4957097;29;20971;-73
2023/03/04 08:31:40;;;;;;;10.00;9.00;;;3.90;77.10;;;;;;4957152;29;20506;-74
2023/03/04 08:34:09;;;;;;;9.50;8.53;;;3.90;76.80;;;;;;4956944;29;20491;-73
2023/03/04 08:36:37;;;;;;;10.33;8.80;;;3.90;77.00;;;;;;4957204;29;20542;-73
2023/03/04 08:39:04;;;;;;;11.10;9.30;;;3.90;76.90;;;;;;4957554;29;20498;-74
2023/03/04 08:41:31;;;;;;;10.00;9.10;;;3.80;77.30;;;;;;4957203;29;20447;-74
2023/03/04 08:43:58;;;;;;;10.20;9.20;;;3.80;77.80;;;;;;4957567;29;20451;-74
2023/03/04 08:46:25;;;;;;;9.97;8.20;;;3.60;77.80;;;;;;4956975;29;20479;-74
2023/03/04 08:48:51;;;;;;;12.20;10.60;;;3.70;78.40;;;;;;4957404;29;20473;-76
2023/03/04 08:51:18;;;;;;;10.70;9.70;;;3.50;78.40;;;;;;4956661;29;20510;-76
2023/03/04 08:53:47;;;;;;;12.10;9.10;;;3.30;79.50;;;;;;4956503;29;21055;-75
2023/03/04 08:56:13;;;;;;;10.47;9.03;;;3.40;79.10;;;;;;4956883;29;20534;-76
2023/03/04 08:58:40;;;;;;;10.90;9.30;;;3.40;78.60;;;;;;4956321;29;20953;-75
2023/03/04 09:01:09;;;;;;;10.30;9.23;;;3.30;78.90;;;;;;4956229;29;20459;-75
2023/03/04 09:03:35;;;;;;;11.20;10.00;;;3.40;79.00;;;;;;4956040;28;20525;-76
2023/03/04 09:06:03;;;;;;;10.43;9.43;;;3.40;78.60;;;;;;4956004;29;20471;-73
2023/03/04 09:08:30;;;;;;;10.27;9.27;;;3.40;78.90;;;;;;4956346;29;20874;-73
2023/03/04 09:10:58;;;;;;;11.53;10.33;;;3.40;78.90;;;;;;4957022;29;20451;-74
2023/03/04 09:13:26;;;;;;;10.90;9.80;;;3.40;79.40;;;;;;4956733;29;20465;-77
2023/03/04 09:15:53;;;;;;;9.90;8.37;;;3.60;79.40;;;;;;4955940;29;20492;-77
2023/03/04 09:18:22;;;;;;;11.10;9.53;;;3.50;79.30;;;;;;4956250;29;20506;-77
2023/03/04 09:20:49;;;;;;;10.50;9.50;;;3.60;78.40;;;;;;4956180;29;20467;-76
2023/03/04 09:23:17;;;;;;;10.70;9.70;;;3.60;78.40;;;;;;4957173;29;20514;-76
2023/03/04 09:25:46;;;;;;;11.97;10.70;;;3.50;78.20;;;;;;4956055;29;20483;-75
2023/03/04 09:28:15;;;;;;;9.97;8.93;;;3.50;78.30;;;;;;4958797;29;20879;-78
2023/03/04 09:30:42;;;;;;;11.43;10.03;;;3.60;78.40;;;;;;4956365;29;20459;-75
2023/03/04 09:33:09;;;;;;;10.50;8.97;;;3.70;78.60;;;;;;4957318;29;20463;-75
2023/03/04 09:35:36;;;;;;;10.57;9.50;;;3.70;78.20;;;;;;4956528;29;20494;-74
2023/03/04 09:38:03;;;;;;;9.43;8.40;;;3.90;77.60;;;;;;4956002;29;20455;-74
2023/03/04 09:40:33;;;;;;;9.20;8.17;;;3.90;77.60;;;;;;4955769;29;20940;-73
2023/03/04 09:43:03;;;;;;;9.97;8.90;;;3.90;77.40;;;;;;4956352;29;20446;-74
2023/03/04 09:45:36;;;;;;;10.47;9.00;;;3.90;77.50;;;;;;4956283;29;20550;-75
2023/03/04 09:48:05;;;;;;;10.13;9.10;;;4.00;77.10;;;;;;4956151;29;20443;-74
2023/03/04 09:50:38;;;;;;;10.00;8.70;;;4.00;76.50;;;;;;4955919;29;20945;-73
2023/03/04 09:53:14;;;;;;;10.67;9.60;;;3.90;76.40;;;;;;4956312;29;20514;-75
2023/03/04 09:55:45;;;;;;;10.53;9.50;;;4.00;76.20;;;;;;4956421;29;20495;-74
2023/03/04 09:58:21;;;;;;;11.00;9.90;;;3.80;76.10;;;;;;4956163;29;20440;-74
2023/03/04 10:00:55;;;;;;;10.63;9.30;;;3.80;76.30;;;;;;4956662;29;20439;-75
2023/03/04 10:03:26;;;;;;;13.00;10.93;;;3.80;76.90;;;;;;4956285;29;20909;-75
2023/03/04 10:05:56;;;;;;;11.63;9.80;;;3.90;76.40;;;;;;4956150;29;20467;-75
2023/03/04 10:08:41;;;;;;;9.77;8.77;;;4.10;75.80;;;;;;4957050;29;20486;-76
2023/03/04 10:11:13;;;;;;;11.50;10.17;;;4.20;75.40;;;;;;4956419;29;20447;-75
2023/03/04 10:13:50;;;;;;;10.90;9.80;;;4.10;74.90;;;;;;4957125;28;20439;-74
2023/03/04 10:16:24;;;;;;;11.00;9.93;;;4.00;75.40;;;;;;4956213;29;20485;-75
2023/03/04 10:18:56;;;;;;;11.30;10.10;;;4.10;75.30;;;;;;4956277;29;20502;-69
2023/03/04 10:21:29;;;;;;;11.80;10.60;;;4.30;75.20;;;;;;4956128;29;20471;-75
2023/03/04 10:23:57;;;;;;;10.67;9.67;;;4.40;74.30;;;;;;4954944;29;20921;-74
2023/03/04 10:26:28;;;;;;;12.20;11.00;;;4.40;74.30;;;;;;4955068;29;20475;-74
2023/03/04 10:28:55;;;;;;;12.40;11.10;;;4.60;73.90;;;;;;4954925;29;20435;-74
2023/03/04 10:31:32;;;;;;;12.50;11.30;;;4.60;72.70;;;;;;4955305;29;20514;-73
2023/03/04 10:33:58;;;;;;;14.80;13.27;;;4.60;72.00;;;;;;4955162;29;20521;-73
2023/03/04 10:36:41;;;;;;;12.03;10.93;;;4.50;73.50;;;;;;4955129;29;20548;-74
2023/03/04 10:39:10;;;;;;;12.30;11.10;;;4.70;73.10;;;;;;4955203;29;20440;-74
2023/03/04 10:41:41;;;;;;;13.97;12.33;;;4.90;72.50;;;;;;4955089;29;20447;-73
2023/03/04 10:44:16;;;;;;;11.73;10.17;;;4.90;71.70;;;;;;4955142;29;20427;-73
2023/03/04 10:46:45;;;;;;;12.83;11.63;;;4.90;70.90;;;;;;4955048;29;20549;-74
2023/03/04 10:49:18;;;;;;;12.30;11.07;;;5.00;71.00;;;;;;4954995;29;20502;-73
2023/03/04 10:51:47;;;;;;;14.17;12.67;;;5.10;70.60;;;;;;4958517;29;20458;-73
2023/03/04 10:54:24;;;;;;;13.40;12.10;;;5.20;70.50;;;;;;4957292;29;20487;-71
2023/03/04 10:56:57;;;;;;;13.70;12.30;;;5.40;69.80;;;;;;4958254;29;20490;-73
2023/03/04 10:59:34;;;;;;;12.50;11.30;;;5.50;69.90;;;;;;4958255;29;20438;-71
2023/03/04 11:02:17;;;;;;;13.93;12.60;;;5.50;69.20;;;;;;4959179;29;20487;-71
2023/03/04 11:04:50;;;;;;;12.90;11.50;;;5.70;70.80;;;;;;4958526;29;20443;-76
2023/03/04 11:07:16;;;;;;;15.07;13.40;;;5.90;69.30;;;;;;4958020;29;20450;-74
2023/03/04 11:09:46;;;;;;;14.47;13.07;;;5.90;68.10;;;;;;4961453;29;20455;-79
2023/03/04 11:12:15;;;;;;;13.90;12.50;;;5.90;67.60;;;;;;4965351;29;20459;-77
2023/03/04 11:14:47;;;;;;;12.90;11.63;;;6.00;68.60;;;;;;4964947;29;20479;-74
2023/03/04 11:17:25;;;;;;;14.70;13.30;;;6.30;72.60;;;;;;4963755;29;20452;-75
2023/03/04 11:19:57;;;;;;;13.77;12.47;;;6.40;67.90;;;;;;4965286;29;20440;-76
2023/03/04 11:22:25;;;;;;;13.53;12.30;;;6.60;67.10;;;;;;4966683;29;20477;-75
2023/03/04 11:25:03;;;;;;;13.23;12.03;;;6.80;67.20;;;;;;4964968;29;20459;-74
2023/03/04 11:27:38;;;;;;;14.70;13.10;;;6.80;66.80;;;;;;4968223;28;20462;-75
2023/03/04 11:30:21;;;;;;;14.27;12.87;;;6.90;66.80;;;;;;4966090;29;20435;-75
2023/03/04 11:32:53;;;;;;;14.20;12.80;;;7.00;65.40;;;;;;4962790;29;20466;-76
2023/03/04 11:35:25;;;;;;;16.40;14.80;;;7.10;64.40;;;;;;4962306;29;20500;-75
2023/03/04 11:37:59;;;;;;;14.50;13.10;;;7.00;64.60;;;;;;4961763;29;20451;-76
2023/03/04 11:40:33;;;;;;;14.90;13.50;;;7.00;64.30;;;;;;4961471;29;20452;-74
2023/03/04 11:43:03;;;;;;;15.63;14.10;;;7.00;64.40;;;;;;4961588;29;20412;-76
2023/03/04 11:45:41;;;;;;;15.47;14.00;;;6.80;65.20;;;;;;4961686;29;20851;-75
2023/03/04 11:48:17;;;;;;;14.63;13.13;;;6.70;65.40;;;;;;4961439;29;20482;-74
2023/03/04 11:50:51;;;;;;;15.60;14.03;;;6.50;65.40;;;;;;4962009;29;20512;-75
2023/03/04 11:53:29;;;;;;;15.70;14.20;;;6.40;65.90;;;;;;4961282;29;20447;-74
2023/03/04 11:56:18;;;;;;;15.97;14.40;;;6.40;65.90;;;;;;4959615;29;20491;-75
2023/03/04 11:59:03;;;;;;;14.57;13.20;;;6.30;66.40;;;;;;4959980;29;20459;-74
2023/03/04 12:01:37;;;;;;;14.90;13.17;;;6.30;66.30;;;;;;4959274;29;20917;-75
2023/03/04 12:04:26;;;;;;;14.00;12.60;;;6.10;66.20;;;;;;4960700;29;20926;-74
2023/03/04 12:07:06;;;;;;;14.87;13.33;;;6.00;66.10;;;;;;4959870;29;20460;-74
2023/03/04 12:09:42;;;;;;;18.03;12.83;;;5.90;65.60;;;;;;4957539;29;20858;-74
2023/03/04 12:12:25;;;;;;;13.83;12.30;;;5.90;66.00;;;;;;4957550;29;20431;-75
2023/03/04 12:15:02;;;;;;;13.00;11.70;;;6.00;66.30;;;;;;4956993;29;20498;-75
2023/03/04 12:17:56;;;;;;;14.37;13.03;;;6.00;66.40;;;;;;4957305;29;20439;-75
2023/03/04 12:20:44;;;;;;;16.17;14.57;;;6.10;65.80;;;;;;4957284;29;20440;-74
2023/03/04 12:23:24;;;;;;;17.43;15.63;;;6.00;66.30;;;;;;4959934;29;20442;-75
2023/03/04 12:25:59;;;;;;;14.53;13.20;;;6.00;66.60;;;;;;4958717;29;20670;-75
2023/03/04 12:28:39;;;;;;;14.20;12.80;;;6.10;66.40;;;;;;4957584;29;20442;-75
2023/03/04 12:31:21;;;;;;;14.73;13.33;;;6.20;66.20;;;;;;4958198;29;20447;-74
2023/03/04 12:34:04;;;;;;;15.20;13.10;;;6.10;66.20;;;;;;4957016;29;20439;-74
2023/03/04 12:36:37;;;;;;;14.87;13.50;;;6.20;65.10;;;;;;4956774;29;20494;-75
2023/03/04 12:39:22;;;;;;;13.57;11.80;;;6.10;65.70;;;;;;4956157;28;20443;-74
2023/03/04 12:42:02;;;;;;;14.13;12.67;;;6.20;65.50;;;;;;4956835;29;20435;-74
2023/03/04 12:44:33;;;;;;;14.07;12.80;;;6.30;64.70;;;;;;4956537;29;20435;-73
2023/03/04 12:47:23;;;;;;;14.27;12.87;;;6.40;64.50;;;;;;4956777;29;20447;-74
2023/03/04 12:50:18;;;;;;;12.10;11.00;;;6.30;64.40;;;;;;4956467;29;20459;-73
2023/03/04 12:52:55;;;;;;;14.57;13.27;;;6.10;65.00;;;;;;4956297;29;20483;-73
2023/03/04 12:55:32;;;;;;;14.03;12.57;;;6.20;65.80;;;;;;4956153;29;20488;-74
2023/03/04 12:57:59;;;;;;;13.80;12.40;;;6.50;65.60;;;;;;4956585;29;20494;-74
2023/03/04 13:00:40;;;;;;;12.40;11.27;;;6.80;64.70;;;;;;4956529;29;20455;-74
2023/03/04 13:03:14;;;;;;;14.10;11.67;;;7.10;63.50;;;;;;4956816;29;20454;-74
2023/03/04 13:05:50;;;;;;;13.90;12.50;;;7.30;62.30;;;;;;4957818;29;20481;-78
2023/03/04 13:08:29;;;;;;;13.77;12.47;;;7.80;62.50;;;;;;4957582;29;20447;-74
2023/03/04 13:11:02;;;;;;;13.13;11.90;;;8.00;60.50;;;;;;4956912;29;20932;-74
2023/03/04 13:13:38;;;;;;;14.00;12.60;;;8.10;60.10;;;;;;4958560;29;20487;-73
2023/03/04 13:16:06;;;;;;;13.40;12.20;;;8.30;60.00;;;;;;4956964;29;20501;-73
2023/03/04 13:18:38;;;;;;;13.10;11.90;;;8.50;59.00;;;;;;4957077;29;20455;-74
2023/03/04 13:21:22;;;;;;;13.73;12.50;;;8.60;58.70;;;;;;4957670;29;20484;-72
2023/03/04 13:23:51;;;;;;;12.40;11.27;;;8.60;58.50;;;;;;4957153;29;20424;-73
2023/03/04 13:26:22;;;;;;;13.07;11.83;;;8.70;58.70;;;;;;4956804;29;20474;-73
2023/03/04 13:28:54;;;;;;;13.53;12.23;;;8.50;59.10;;;;;;4956826;29;20474;-73
2023/03/04 13:31:26;;;;;;;12.67;11.57;;;8.30;58.70;;;;;;4956585;29;20540;-73
2023/03/04 13:34:04;;;;;;;13.70;12.40;;;8.10;59.10;;;;;;4956750;29;20463;-73
2023/03/04 13:36:48;;;;;;;14.40;13.00;;;8.10;59.60;;;;;;4956495;29;20498;-73
2023/03/04 13:39:33;;;;;;;15.90;14.00;;;8.10;60.40;;;;;;4953709;29;20459;-74
2023/03/04 13:42:00;;;;;;;13.97;12.53;;;8.00;60.10;;;;;;4956653;29;20813;-74
2023/03/04 13:45:00;;;;;;;14.40;13.03;;;8.00;59.90;;;;;;4956589;29;20439;-73
2023/03/04 13:47:42;;;;;;;14.83;13.30;;;8.00;60.50;;;;;;4956326;29;20442;-72
2023/03/04 13:50:41;;;;;;;14.70;13.20;;;7.90;61.00;;;;;;4955526;28;20523;-73
2023/03/04 13:53:42;;;;;;;15.87;14.27;;;7.60;61.50;;;;;;4955615;29;20435;-72
2023/03/04 13:56:28;;;;;;;15.13;13.60;;;7.30;61.40;;;;;;4955256;29;20494;-71
2023/03/04 13:59:11;;;;;;;15.10;13.60;;;7.20;62.20;;;;;;4955190;29;20917;-70
2023/03/04 14:01:56;;;;;;;15.87;14.17;;;7.10;62.30;;;;;;4955021;29;20964;-72
2023/03/04 14:04:26;;;;;;;15.47;13.97;;;7.00;62.90;;;;;;4955328;29;20439;-72
2023/03/04 14:06:56;;;;;;;17.03;15.23;;;6.90;63.30;;;;;;4955311;29;20467;-71
2023/03/04 14:09:26;;;;;;;13.50;12.20;;;6.70;63.20;;;;;;4955295;29;20431;-71
2023/03/04 14:11:57;;;;;;;13.07;11.80;;;6.40;63.60;;;;;;4954952;29;20944;-72
2023/03/04 14:14:26;;;;;;;13.37;11.27;;;6.20;64.40;;;;;;4955406;29;20431;-73
2023/03/04 14:16:57;;;;;;;12.27;11.07;;;6.20;64.30;;;;;;4954858;29;20503;-71
2023/03/04 14:19:27;;;;;;;13.03;11.47;;;5.90;65.10;;;;;;4955156;29;20448;-72
2023/03/04 14:21:54;;;;;;;12.77;11.47;;;5.70;65.50;;;;;;4955282;29;20855;-70
2023/03/04 14:24:21;;;;;;;11.53;10.50;;;5.80;65.90;;;;;;4955226;29;20451;-70
2023/03/04 14:26:49;;;;;;;13.33;11.10;;;5.60;66.10;;;;;;4955122;29;20518;-72
2023/03/04 14:29:25;;;;;;;12.90;10.87;;;5.50;66.50;;;;;;4955184;29;20458;-71
2023/03/04 14:31:52;;;;;;;12.50;11.23;;;5.40;67.00;;;;;;4955231;29;20494;-73
2023/03/04 14:34:26;;;;;;;14.37;12.97;;;5.40;66.80;;;;;;4955136;29;20502;-72
2023/03/04 14:36:52;;;;;;;12.57;11.27;;;5.40;67.60;;;;;;4954997;29;20483;-72
2023/03/04 14:39:22;;;;;;;14.60;11.63;;;5.30;67.60;;;;;;4955009;29;20451;-72
2023/03/04 14:41:51;;;;;;;12.63;11.37;;;5.30;67.70;;;;;;4955055;29;20443;-70
2023/03/04 14:44:28;;;;;;;12.90;11.10;;;5.40;67.60;;;;;;4956352;29;20458;-72
2023/03/04 14:47:00;;;;;;;12.37;11.17;;;5.40;67.90;;;;;;4956928;29;20478;-72
2023/03/04 14:49:27;;;;;;;12.40;10.47;;;5.50;67.60;;;;;;4956042;29;20412;-73
2023/03/04 14:51:55;;;;;;;11.80;10.70;;;5.50;67.10;;;;;;4956132;29;20441;-71
2023/03/04 14:54:29;;;;;;;12.93;11.27;;;5.50;67.40;;;;;;4955840;29;20458;-72
2023/03/04 14:56:56;;;;;;;11.67;10.50;;;5.40;67.30;;;;;;4956258;29;20490;-73
2023/03/04 14:59:32;;;;;;;13.63;11.37;;;5.30;68.10;;;;;;4957023;29;20451;-73
2023/03/04 15:02:31;;;;;;;14.33;12.60;;;5.30;68.00;;;;;;4959612;28;20442;-73
2023/03/04 15:05:01;;;;;;;12.23;11.00;;;5.10;68.70;;;;;;4960645;29;20533;-72
2023/03/04 15:07:34;;;;;;;15.50;11.60;;;5.10;68.70;;;;;;4960321;29;20879;-73
2023/03/04 15:10:04;;;;;;;15.37;11.20;;;5.00;68.70;;;;;;4959642;29;20423;-71
2023/03/04 15:12:34;;;;;;;12.87;11.37;;;5.10;69.00;;;;;;4959597;29;20518;-72
2023/03/04 15:15:03;;;;;;;12.60;11.30;;;5.10;69.30;;;;;;4958442;29;20490;-71
2023/03/04 15:17:36;;;;;;;14.57;11.37;;;5.10;69.10;;;;;;4958168;29;20917;-71
2023/03/04 15:20:20;;;;;;;13.73;12.43;;;5.00;69.50;;;;;;4958378;29;20439;-70
2023/03/04 15:23:02;;;;;;;14.90;12.50;;;5.00;69.80;;;;;;4958266;29;20443;-71
2023/03/04 15:25:29;;;;;;;13.50;11.57;;;5.10;69.80;;;;;;4958214;29;20521;-73
2023/03/04 15:27:57;;;;;;;14.90;13.40;;;5.10;69.80;;;;;;4958421;29;20514;-72
2023/03/04 15:30:28;;;;;;;17.90;11.63;;;5.00;69.90;;;;;;4958229;29;20457;-72
2023/03/04 15:32:55;;;;;;;14.20;11.37;;;5.00;70.10;;;;;;4957823;29;20801;-71
2023/03/04 15:35:23;;;;;;;14.40;13.00;;;5.00;69.90;;;;;;4957997;29;20478;-72
2023/03/04 15:37:53;;;;;;;15.43;12.20;;;5.00;70.10;;;;;;4958041;29;20455;-72
2023/03/04 15:40:27;;;;;;;13.00;11.70;;;5.10;69.80;;;;;;4961293;29;20497;-71
2023/03/04 15:42:56;;;;;;;14.70;11.17;;;4.90;70.00;;;;;;4960722;29;20458;-71
2023/03/04 15:45:26;;;;;;;16.07;12.67;;;4.90;70.70;;;;;;4960467;29;20475;-72
2023/03/04 15:47:52;;;;;;;14.17;11.33;;;4.90;70.60;;;;;;4960476;29;20458;-71
2023/03/04 15:50:20;;;;;;;12.30;10.80;;;4.90;70.70;;;;;;4960399;29;20442;-72
2023/03/04 15:52:47;;;;;;;15.53;12.17;;;4.80;71.00;;;;;;4960411;29;20466;-72
2023/03/04 15:55:16;;;;;;;11.20;9.87;;;5.00;70.80;;;;;;4960206;29;20475;-72
2023/03/04 15:57:44;;;;;;;11.40;10.17;;;5.00;70.50;;;;;;4960570;29;20945;-72
2023/03/04 16:00:12;;;;;;;11.63;10.30;;;5.00;70.20;;;;;;4960207;29;20462;-71
2023/03/04 16:02:41;;;;;;;12.97;10.77;;;5.10;70.20;;;;;;4962084;29;20451;-72
2023/03/04 16:05:09;;;;;;;13.10;10.70;;;5.10;70.10;;;;;;4960893;29;20490;-72
2023/03/04 16:07:39;;;;;;;12.10;10.50;;;5.10;70.10;;;;;;4964838;29;20436;-72
2023/03/04 16:10:11;;;;;;;10.90;9.90;;;5.00;69.90;;;;;;4966083;29;20466;-72
2023/03/04 16:12:38;;;;;;;12.00;9.33;;;5.00;70.50;;;;;;4965194;28;20512;-72
2023/03/04 16:15:13;;;;;;;13.50;10.10;;;5.10;70.40;;;;;;4964749;29;20491;-71
2023/03/04 16:17:46;;;;;;;14.23;11.30;;;5.10;70.00;;;;;;5024091;23;21011;-77
2023/03/04 16:20:19;;;;;;;12.80;11.47;;;5.10;70.20;;;;;;4962130;29;20463;-75
2023/03/04 16:22:58;;;;;;;10.47;9.40;;;5.00;70.20;;;;;;4962864;29;20451;-75
2023/03/04 16:25:29;;;;;;;11.10;9.90;;;5.00;70.20;;;;;;4961541;29;20851;-74
2023/03/04 16:28:10;;;;;;;18.13;11.13;;;5.00;70.10;;;;;;4941958;29;20532;-74
2023/03/04 16:30:44;;;;;;;12.27;9.43;;;5.10;70.70;;;;;;4941086;29;21016;-72
2023/03/04 16:33:13;;;;;;;13.37;11.67;;;5.10;70.10;;;;;;4939879;29;20857;-70
2023/03/04 16:35:41;;;;;;;14.63;11.33;;;5.10;70.30;;;;;;4940866;29;20503;-76
2023/03/04 16:38:25;;;;;;;12.90;10.03;;;5.10;70.20;;;;;;4941976;29;20453;-74
2023/03/04 16:41:00;;;;;;;11.87;9.53;;;5.10;70.40;;;;;;4942370;29;20444;-74
2023/03/04 16:43:35;;;;;;;10.27;9.27;;;4.80;70.90;;;;;;4941731;29;20507;-73
2023/03/04 16:46:05;;;;;;;11.90;10.60;;;4.70;71.60;;;;;;4941192;29;20468;-72
2023/03/04 16:48:35;;;;;;;13.43;9.67;;;4.80;71.40;;;;;;4940850;29;20451;-72
2023/03/04 16:51:13;;;;;;;10.77;9.67;;;4.70;71.70;;;;;;4940634;29;20468;-73
2023/03/04 16:53:47;;;;;;;14.13;10.60;;;4.70;71.80;;;;;;4941415;29;20421;-73
2023/03/04 16:56:22;;;;;;;12.50;10.87;;;4.90;71.60;;;;;;4940920;29;20543;-73
2023/03/04 16:58:49;;;;;;;12.63;11.00;;;5.00;71.20;;;;;;4941777;29;20463;-72
2023/03/04 17:01:19;;;;;;;10.73;9.63;;;4.90;71.20;;;;;;4940246;29;20507;-73
2023/03/04 17:03:47;;;;;;;13.83;10.50;;;5.00;71.40;;;;;;4937830;29;20463;-74